createdAt,value
2023-02-04T00:00:24.951Z,7.00
2023-02-04T00:01:24.957Z,6.92
2023-02-04T00:02:24.959Z,6.99
2023-02-04T00:03:24.913Z,6.97
2023-02-04T00:04:24.920Z,6.96
2023-02-04T00:05:24.965Z,6.99
2023-02-04T00:06:24.874Z,6.97
2023-02-04T00:07:24.872Z,6.99
2023-02-04T00:08:24.849Z,6.89
2023-02-04T00:09:31.949Z,7.02
2023-02-04T00:10:24.832Z,6.96
2023-02-04T00:11:24.855Z,7.03
2023-02-04T00:12:24.812Z,6.99
2023-02-04T00:13:24.814Z,7.02
2023-02-04T00:14:24.793Z,6.97
2023-02-04T00:15:24.771Z,7.00
2023-02-04T00:16:24.857Z,7.02
2023-02-04T00:17:24.774Z,7.10
2023-02-04T00:18:24.742Z,7.05
2023-02-04T00:19:24.756Z,7.02
2023-02-04T00:20:24.726Z,7.05
2023-02-04T00:21:24.702Z,7.00
2023-02-04T00:22:24.702Z,7.07
2023-02-04T00:23:24.679Z,7.02
2023-02-04T00:24:24.696Z,7.06
2023-02-04T00:25:24.669Z,6.97
2023-02-04T00:26:24.644Z,7.10
2023-02-04T00:27:24.636Z,7.05
2023-02-04T00:28:24.622Z,7.06
2023-02-04T00:29:24.622Z,7.06
2023-02-04T00:30:24.611Z,7.03
2023-02-04T00:31:24.683Z,7.11
2023-02-04T00:32:24.622Z,7.02
2023-02-04T00:33:24.591Z,7.15
2023-02-04T00:34:24.553Z,7.13
2023-02-04T00:35:24.568Z,7.11
2023-02-04T00:36:24.564Z,7.20
2023-02-04T00:37:24.522Z,7.23
2023-02-04T00:38:24.517Z,7.14
2023-02-04T00:39:24.498Z,7.15
2023-02-04T00:40:24.494Z,7.18
2023-02-04T00:41:24.476Z,7.20
2023-02-04T00:42:24.491Z,7.23
2023-02-04T00:43:24.463Z,7.15
2023-02-04T00:44:24.445Z,7.20
2023-02-04T00:45:24.498Z,7.20
2023-02-04T00:46:24.425Z,7.24
2023-02-04T00:47:24.406Z,7.20
2023-02-04T00:48:26.658Z,7.17
2023-02-04T00:49:24.407Z,7.17
2023-02-04T00:50:24.382Z,7.23
2023-02-04T00:51:24.368Z,7.28
2023-02-04T00:52:24.357Z,7.20
2023-02-04T00:53:24.346Z,7.32
2023-02-04T00:54:24.332Z,7.25
2023-02-04T00:55:24.316Z,7.28
2023-02-04T00:56:24.321Z,7.28
2023-02-04T00:57:24.294Z,7.29
2023-02-04T00:58:24.294Z,7.35
2023-02-04T00:59:24.282Z,7.25
2023-02-04T01:00:24.263Z,7.25
2023-02-04T01:01:24.323Z,7.29
2023-02-04T01:02:24.243Z,7.31
2023-02-04T01:03:24.232Z,7.24
2023-02-04T01:04:24.229Z,7.25
2023-02-04T01:05:24.238Z,7.15
2023-02-04T01:06:24.197Z,7.18
2023-02-04T01:07:24.220Z,7.15
2023-02-04T01:08:24.175Z,7.20
2023-02-04T01:09:24.163Z,7.18
2023-02-04T01:10:24.152Z,7.17
2023-02-04T01:11:24.144Z,7.15
2023-02-04T01:12:24.142Z,7.20
2023-02-04T01:13:24.117Z,7.20
2023-02-04T01:14:24.108Z,7.23
2023-02-04T01:15:24.107Z,7.21
2023-02-04T01:16:24.120Z,7.24
2023-02-04T01:17:24.091Z,7.21
2023-02-04T01:18:24.061Z,7.15
2023-02-04T01:19:24.046Z,7.17
2023-02-04T01:20:24.043Z,7.21
2023-02-04T01:21:24.052Z,7.17
2023-02-04T01:22:24.020Z,7.14
2023-02-04T01:23:24.012Z,7.23
2023-02-04T01:24:23.993Z,7.15
2023-02-04T01:25:23.983Z,7.15
2023-02-04T01:26:23.975Z,7.20
2023-02-04T01:27:23.991Z,7.20
2023-02-04T01:28:23.960Z,7.21
2023-02-04T01:29:23.940Z,7.17
2023-02-04T01:30:23.927Z,7.18
2023-02-04T01:31:23.942Z,7.24
2023-02-04T01:32:23.904Z,7.23
2023-02-04T01:33:23.923Z,7.18
2023-02-04T01:34:23.882Z,7.21
2023-02-04T01:35:23.868Z,7.29
2023-02-04T01:36:23.861Z,7.31
2023-02-04T01:37:23.887Z,7.29
2023-02-04T01:38:23.835Z,7.28
2023-02-04T01:39:23.828Z,7.28
2023-02-04T01:40:23.812Z,7.29
2023-02-04T01:41:23.797Z,7.25
2023-02-04T01:42:23.794Z,7.25
2023-02-04T01:43:23.784Z,7.29
2023-02-04T01:44:23.765Z,7.21
2023-02-04T01:45:23.749Z,7.21
2023-02-04T01:46:23.743Z,7.15
2023-02-04T01:47:23.763Z,7.15
2023-02-04T01:48:23.734Z,7.14
2023-02-04T01:49:23.715Z,7.20
2023-02-04T01:50:23.701Z,7.20
2023-02-04T01:51:23.683Z,7.15
2023-02-04T01:52:23.679Z,7.20
2023-02-04T01:53:23.679Z,7.21
2023-02-04T01:54:23.654Z,7.15
2023-02-04T01:55:23.662Z,7.21
2023-02-04T01:56:23.638Z,7.21
2023-02-04T01:57:23.617Z,7.17
2023-02-04T01:58:23.604Z,7.21
2023-02-04T01:59:23.602Z,7.18
2023-02-04T02:00:23.589Z,7.28
2023-02-04T02:01:23.601Z,7.20
2023-02-04T02:02:23.679Z,7.13
2023-02-04T02:03:23.548Z,7.18
2023-02-04T02:04:23.541Z,7.11
2023-02-04T02:05:23.523Z,7.23
2023-02-04T02:06:23.519Z,7.17
2023-02-04T02:07:23.523Z,7.15
2023-02-04T02:08:23.494Z,7.18
2023-02-04T02:09:23.500Z,7.17
2023-02-04T02:10:23.469Z,7.28
2023-02-04T02:11:23.467Z,7.23
2023-02-04T02:12:23.469Z,7.17
2023-02-04T02:13:23.439Z,7.15
2023-02-04T02:14:23.424Z,7.18
2023-02-04T02:15:23.416Z,7.15
2023-02-04T02:16:23.430Z,7.20
2023-02-04T02:17:23.386Z,7.13
2023-02-04T02:18:23.408Z,7.18
2023-02-04T02:19:23.372Z,7.23
2023-02-04T02:20:23.364Z,7.10
2023-02-04T02:21:23.340Z,7.18
2023-02-04T02:22:23.353Z,7.18
2023-02-04T02:23:23.322Z,7.23
2023-02-04T02:24:23.319Z,7.18
2023-02-04T02:25:23.317Z,7.10
2023-02-04T02:26:23.289Z,7.15
2023-02-04T02:27:23.283Z,7.17
2023-02-04T02:28:23.277Z,7.20
2023-02-04T02:29:23.269Z,7.20
2023-02-04T02:30:23.250Z,7.29
2023-02-04T02:31:23.404Z,7.25
2023-02-04T02:32:23.239Z,7.17
2023-02-04T02:33:23.231Z,7.29
2023-02-04T02:34:23.205Z,7.32
2023-02-04T02:35:23.191Z,7.24
2023-02-04T02:36:23.183Z,7.28
2023-02-04T02:37:23.160Z,7.29
2023-02-04T02:38:23.163Z,7.23
2023-02-04T02:39:23.156Z,7.24
2023-02-04T02:40:23.129Z,7.28
2023-02-04T02:41:23.140Z,7.29
2023-02-04T02:42:23.105Z,7.28
2023-02-04T02:43:23.088Z,7.29
2023-02-04T02:44:23.129Z,7.25
2023-02-04T02:45:23.088Z,7.25
2023-02-04T02:46:23.093Z,7.25
2023-02-04T02:47:23.042Z,7.24
2023-02-04T02:48:23.061Z,7.25
2023-02-04T02:49:23.021Z,7.25
2023-02-04T02:50:23.049Z,7.25
2023-02-04T02:51:23.006Z,7.23
2023-02-04T02:52:23.060Z,7.25
2023-02-04T02:53:22.972Z,7.17
2023-02-04T02:54:22.970Z,7.32
2023-02-04T02:55:22.951Z,7.29
2023-02-04T02:56:22.945Z,7.28
2023-02-04T02:57:22.947Z,7.20
2023-02-04T02:58:22.930Z,7.24
2023-02-04T02:59:22.924Z,7.28
2023-02-04T03:00:22.897Z,7.25
2023-02-04T03:01:22.917Z,7.20
2023-02-04T03:02:22.983Z,7.20
2023-02-04T03:03:22.866Z,7.23
2023-02-04T03:04:22.880Z,7.23
2023-02-04T03:05:22.842Z,7.21
2023-02-04T03:06:22.828Z,7.15
2023-02-04T03:07:22.829Z,7.18
2023-02-04T03:08:22.820Z,7.31
2023-02-04T03:09:22.790Z,7.15
2023-02-04T03:10:22.804Z,7.17
2023-02-04T03:11:22.767Z,7.17
2023-02-04T03:12:22.760Z,7.17
2023-02-04T03:13:22.769Z,7.15
2023-02-04T03:14:22.734Z,7.20
2023-02-04T03:15:22.724Z,7.21
2023-02-04T03:16:22.713Z,7.21
2023-02-04T03:17:22.696Z,7.23
2023-02-04T03:18:22.698Z,7.24
2023-02-04T03:19:22.692Z,7.15
2023-02-04T03:20:22.701Z,7.13
2023-02-04T03:21:22.656Z,7.18
2023-02-04T03:22:22.670Z,7.21
2023-02-04T03:23:22.634Z,7.29
2023-02-04T03:24:22.624Z,7.24
2023-02-04T03:25:22.610Z,7.24
2023-02-04T03:26:22.620Z,7.21
2023-02-04T03:27:22.587Z,7.18
2023-02-04T03:28:22.579Z,7.29
2023-02-04T03:29:22.589Z,7.17
2023-02-04T03:30:22.560Z,7.17
2023-02-04T03:31:22.676Z,7.17
2023-02-04T03:32:22.532Z,7.17
2023-02-04T03:33:22.523Z,7.17
2023-02-04T03:34:22.520Z,7.20
2023-02-04T03:35:22.505Z,7.15
2023-02-04T03:36:22.510Z,7.23
2023-02-04T03:37:22.484Z,7.18
2023-02-04T03:38:22.474Z,7.17
2023-02-04T03:39:22.455Z,7.18
2023-02-04T03:40:22.447Z,7.29
2023-02-04T03:41:22.430Z,7.18
2023-02-04T03:42:22.440Z,7.29
2023-02-04T03:43:22.425Z,7.25
2023-02-04T03:44:22.399Z,7.24
2023-02-04T03:45:22.416Z,7.29
2023-02-04T03:46:22.437Z,7.20
2023-02-04T03:47:22.374Z,7.28
2023-02-04T03:48:22.352Z,7.17
2023-02-04T03:49:22.346Z,7.17
2023-02-04T03:50:22.328Z,7.25
2023-02-04T03:51:22.323Z,7.25
2023-02-04T03:52:22.317Z,7.23
2023-02-04T03:53:22.293Z,7.15
2023-02-04T03:54:22.296Z,7.21
2023-02-04T03:55:22.359Z,7.21
2023-02-04T03:56:22.274Z,7.24
2023-02-04T03:57:22.258Z,7.18
2023-02-04T03:58:22.243Z,7.24
2023-02-04T03:59:22.225Z,7.28
2023-02-04T04:00:22.221Z,7.23
2023-02-04T04:01:22.259Z,7.15
2023-02-04T04:02:22.232Z,7.25
2023-02-04T04:03:22.188Z,7.15
2023-02-04T04:04:22.173Z,7.21
2023-02-04T04:05:22.159Z,7.18
2023-02-04T04:06:22.156Z,7.13
2023-02-04T04:07:22.138Z,7.15
2023-02-04T04:08:22.164Z,7.25
2023-02-04T04:09:22.120Z,7.18
2023-02-04T04:10:22.113Z,7.17
2023-02-04T04:11:22.092Z,7.20
2023-02-04T04:12:22.093Z,7.24
2023-02-04T04:13:22.073Z,7.24
2023-02-04T04:14:22.072Z,7.17
2023-02-04T04:15:22.051Z,7.20
2023-02-04T04:16:22.173Z,7.24
2023-02-04T04:17:22.075Z,7.28
2023-02-04T04:18:22.021Z,7.21
2023-02-04T04:19:22.002Z,7.20
2023-02-04T04:20:22.000Z,7.18
2023-02-04T04:21:21.992Z,7.13
2023-02-04T04:22:21.974Z,7.21
2023-02-04T04:23:21.988Z,7.14
2023-02-04T04:24:21.953Z,7.21
2023-02-04T04:25:21.935Z,7.17
2023-02-04T04:26:21.927Z,7.14
2023-02-04T04:27:21.925Z,7.14
2023-02-04T04:28:21.922Z,7.11
2023-02-04T04:29:21.889Z,7.13
2023-02-04T04:30:21.893Z,7.14
2023-02-04T04:31:21.995Z,7.11
2023-02-04T04:32:21.866Z,7.13
2023-02-04T04:33:21.868Z,7.20
2023-02-04T04:34:21.832Z,7.13
2023-02-04T04:35:21.822Z,7.18
2023-02-04T04:36:21.821Z,7.18
2023-02-04T04:37:21.806Z,7.15
2023-02-04T04:38:21.790Z,7.20
2023-02-04T04:39:21.771Z,7.21
2023-02-04T04:40:21.767Z,7.13
2023-02-04T04:41:21.748Z,7.13
2023-02-04T04:42:21.751Z,7.21
2023-02-04T04:43:21.725Z,7.21
2023-02-04T04:44:21.729Z,7.21
2023-02-04T04:45:21.701Z,7.14
2023-02-04T04:46:21.792Z,7.03
2023-02-04T04:47:21.685Z,7.03
2023-02-04T04:48:21.674Z,7.13
2023-02-04T04:49:21.681Z,7.03
2023-02-04T04:50:21.662Z,7.05
2023-02-04T04:51:21.632Z,7.05
2023-02-04T04:52:21.632Z,7.06
2023-02-04T04:53:21.611Z,7.03
2023-02-04T04:54:21.600Z,7.05
2023-02-04T04:55:21.612Z,7.05
2023-02-04T04:56:21.573Z,7.05
2023-02-04T04:57:21.575Z,7.03
2023-02-04T04:58:21.558Z,7.06
2023-02-04T04:59:21.571Z,7.07
2023-02-04T05:00:21.544Z,7.03
2023-02-04T05:01:21.575Z,7.03
2023-02-04T05:02:21.509Z,7.05
2023-02-04T05:03:21.512Z,7.07
2023-02-04T05:04:21.547Z,7.07
2023-02-04T05:05:21.512Z,7.02
2023-02-04T05:06:21.464Z,7.05
2023-02-04T05:07:21.459Z,7.11
2023-02-04T05:08:21.539Z,7.05
2023-02-04T05:09:21.443Z,7.03
2023-02-04T05:10:21.419Z,7.03
2023-02-04T05:11:21.416Z,7.05
2023-02-04T05:12:21.402Z,7.11
2023-02-04T05:13:21.406Z,7.17
2023-02-04T05:14:21.392Z,7.11
2023-02-04T05:15:21.368Z,6.99
2023-02-04T05:16:21.423Z,7.11
2023-02-04T05:17:21.345Z,7.05
2023-02-04T05:18:21.339Z,7.10
2023-02-04T05:19:21.334Z,7.06
2023-02-04T05:20:21.322Z,7.07
2023-02-04T05:21:21.320Z,7.14
2023-02-04T05:22:21.288Z,7.20
2023-02-04T05:23:21.280Z,7.11
2023-02-04T05:24:21.279Z,7.05
2023-02-04T05:25:21.274Z,7.07
2023-02-04T05:26:29.937Z,7.13
2023-02-04T05:27:22.238Z,7.11
2023-02-04T05:28:21.219Z,7.18
2023-02-04T05:29:21.220Z,7.07
2023-02-04T05:30:21.196Z,7.11
2023-02-04T05:31:21.293Z,7.18
2023-02-04T05:32:21.182Z,7.18
2023-02-04T05:33:21.193Z,7.10
2023-02-04T05:34:21.154Z,7.18
2023-02-04T05:35:21.150Z,7.14
2023-02-04T05:36:21.127Z,7.11
2023-02-04T05:37:21.145Z,7.14
2023-02-04T05:38:21.113Z,7.11
2023-02-04T05:39:21.095Z,7.20
2023-02-04T05:40:21.096Z,7.07
2023-02-04T05:41:21.086Z,7.14
2023-02-04T05:42:21.057Z,7.11
2023-02-04T05:43:21.077Z,7.11
2023-02-04T05:44:21.034Z,7.14
2023-02-04T05:45:21.026Z,7.10
2023-02-04T05:46:21.068Z,7.17
2023-02-04T05:47:21.007Z,7.15
2023-02-04T05:48:20.993Z,7.14
2023-02-04T05:49:20.991Z,7.11
2023-02-04T05:50:20.973Z,7.07
2023-02-04T05:51:20.958Z,7.20
2023-02-04T05:52:20.956Z,7.15
2023-02-04T05:53:20.954Z,7.07
2023-02-04T05:54:20.935Z,7.15
2023-02-04T05:55:20.916Z,7.10
2023-02-04T05:56:20.901Z,7.07
2023-02-04T05:57:20.904Z,7.15
2023-02-04T05:58:20.897Z,7.14
2023-02-04T05:59:20.870Z,7.11
2023-02-04T06:00:20.853Z,7.14
2023-02-04T06:01:20.860Z,7.18
2023-02-04T06:02:20.843Z,7.17
2023-02-04T06:03:20.858Z,7.15
2023-02-04T06:04:20.826Z,7.10
2023-02-04T06:05:20.817Z,7.13
2023-02-04T06:06:20.792Z,7.10
2023-02-04T06:07:20.786Z,7.11
2023-02-04T06:08:20.774Z,7.18
2023-02-04T06:09:20.774Z,7.17
2023-02-04T06:10:27.851Z,7.17
2023-02-04T06:11:20.727Z,7.21
2023-02-04T06:12:20.712Z,7.21
2023-02-04T06:13:20.719Z,7.18
2023-02-04T06:14:20.725Z,7.24
2023-02-04T06:15:20.696Z,7.21
2023-02-04T06:16:20.703Z,7.24
2023-02-04T06:17:20.689Z,7.21
2023-02-04T06:18:20.667Z,7.24
2023-02-04T06:19:20.646Z,7.18
2023-02-04T06:20:20.639Z,7.28
2023-02-04T06:21:20.625Z,7.15
2023-02-04T06:22:20.628Z,7.24
2023-02-04T06:23:20.598Z,7.18
2023-02-04T06:24:20.585Z,7.23
2023-02-04T06:25:20.594Z,7.23
2023-02-04T06:26:20.563Z,7.20
2023-02-04T06:27:20.585Z,7.18
2023-02-04T06:28:20.586Z,7.23
2023-02-04T06:29:20.526Z,7.18
2023-02-04T06:30:20.520Z,7.17
2023-02-04T06:31:20.619Z,7.20
2023-02-04T06:32:20.504Z,7.14
2023-02-04T06:33:20.489Z,7.14
2023-02-04T06:34:20.472Z,7.21
2023-02-04T06:35:20.459Z,7.23
2023-02-04T06:36:20.447Z,7.20
2023-02-04T06:37:20.463Z,7.21
2023-02-04T06:38:20.431Z,7.15
2023-02-04T06:39:20.427Z,7.18
2023-02-04T06:40:20.406Z,7.23
2023-02-04T06:41:20.433Z,7.20
2023-02-04T06:42:20.373Z,7.15
2023-02-04T06:43:20.382Z,7.23
2023-02-04T06:44:20.361Z,7.23
2023-02-04T06:45:20.344Z,7.14
2023-02-04T06:46:20.417Z,7.20
2023-02-04T06:47:20.332Z,7.20
2023-02-04T06:48:20.304Z,7.20
2023-02-04T06:49:20.361Z,7.15
2023-02-04T06:50:20.311Z,7.25
2023-02-04T06:51:20.286Z,7.23
2023-02-04T06:52:20.267Z,7.18
2023-02-04T06:53:20.249Z,7.15
2023-02-04T06:54:20.245Z,7.21
2023-02-04T06:55:20.242Z,7.15
2023-02-04T06:56:20.221Z,7.23
2023-02-04T06:57:20.233Z,7.23
2023-02-04T06:58:20.198Z,7.18
2023-02-04T06:59:20.186Z,7.17
2023-02-04T07:00:20.180Z,7.18
2023-02-04T07:01:20.186Z,7.20
2023-02-04T07:02:20.194Z,7.24
2023-02-04T07:03:20.147Z,7.15
2023-02-04T07:04:20.137Z,7.13
2023-02-04T07:05:20.122Z,7.23
2023-02-04T07:06:20.113Z,7.15
2023-02-04T07:07:20.096Z,7.13
2023-02-04T07:08:20.079Z,7.20
2023-02-04T07:09:20.072Z,7.18
2023-02-04T07:10:20.068Z,7.13
2023-02-04T07:11:20.066Z,7.24
2023-02-04T07:12:20.041Z,7.25
2023-02-04T07:13:20.049Z,7.18
2023-02-04T07:14:20.013Z,7.15
2023-02-04T07:15:20.014Z,7.23
2023-02-04T07:16:19.993Z,7.18
2023-02-04T07:17:19.997Z,7.13
2023-02-04T07:18:20.032Z,7.14
2023-02-04T07:19:21.223Z,7.17
2023-02-04T07:20:19.948Z,7.17
2023-02-04T07:21:19.945Z,7.13
2023-02-04T07:22:19.945Z,7.15
2023-02-04T07:23:19.935Z,7.11
2023-02-04T07:24:19.904Z,7.18
2023-02-04T07:25:19.890Z,7.15
2023-02-04T07:26:19.890Z,7.13
2023-02-04T07:27:19.868Z,7.15
2023-02-04T07:28:19.876Z,7.25
2023-02-04T07:29:25.119Z,7.15
2023-02-04T07:30:20.832Z,7.25
2023-02-04T07:31:19.970Z,7.17
2023-02-04T07:32:19.813Z,7.24
2023-02-04T07:33:19.816Z,7.17
2023-02-04T07:34:19.806Z,7.23
2023-02-04T07:35:19.782Z,7.18
2023-02-04T07:36:19.761Z,7.11
2023-02-04T07:37:19.768Z,7.24
2023-02-04T07:38:19.738Z,7.18
2023-02-04T07:39:19.740Z,7.18
2023-02-04T07:40:19.713Z,7.20
2023-02-04T07:41:19.706Z,7.29
2023-02-04T07:42:19.701Z,7.32
2023-02-04T07:43:19.690Z,7.29
2023-02-04T07:44:19.690Z,7.23
2023-02-04T07:45:19.683Z,7.32
2023-02-04T07:46:19.668Z,7.32
2023-02-04T07:47:19.632Z,7.24
2023-02-04T07:48:19.629Z,7.29
2023-02-04T07:49:19.609Z,7.25
2023-02-04T07:50:19.600Z,7.31
2023-02-04T07:51:19.585Z,7.28
2023-02-04T07:52:19.578Z,7.28
2023-02-04T07:53:19.572Z,7.31
2023-02-04T07:54:19.547Z,7.25
2023-02-04T07:55:19.552Z,7.23
2023-02-04T07:56:19.527Z,7.40
2023-02-04T07:57:20.483Z,7.25
2023-02-04T07:58:19.518Z,7.36
2023-02-04T07:59:19.499Z,7.33
2023-02-04T08:00:19.483Z,7.32
2023-02-04T08:01:19.562Z,7.33
2023-02-04T08:02:19.458Z,7.35
2023-02-04T08:03:19.451Z,7.39
2023-02-04T08:04:19.436Z,7.38
2023-02-04T08:05:19.421Z,7.36
2023-02-04T08:06:19.414Z,7.39
2023-02-04T08:07:19.406Z,7.36
2023-02-04T08:08:19.386Z,7.36
2023-02-04T08:09:19.377Z,7.35
2023-02-04T08:10:19.374Z,7.32
2023-02-04T08:11:19.363Z,7.28
2023-02-04T08:12:19.354Z,7.31
2023-02-04T08:13:19.339Z,7.38
2023-02-04T08:14:19.313Z,7.38
2023-02-04T08:15:19.316Z,7.33
2023-02-04T08:16:19.353Z,7.36
2023-02-04T08:17:19.302Z,7.33
2023-02-04T08:18:19.268Z,7.39
2023-02-04T08:19:19.286Z,7.32
2023-02-04T08:20:19.256Z,7.29
2023-02-04T08:21:19.634Z,7.35
2023-02-04T08:22:19.235Z,7.33
2023-02-04T08:23:19.227Z,7.32
2023-02-04T08:24:19.200Z,7.35
2023-02-04T08:25:19.190Z,7.39
2023-02-04T08:26:19.190Z,7.32
2023-02-04T08:27:19.174Z,7.38
2023-02-04T08:28:19.285Z,7.38
2023-02-04T08:29:19.141Z,7.36
2023-02-04T08:30:19.135Z,7.36
2023-02-04T08:31:19.263Z,7.38
2023-02-04T08:32:19.119Z,7.32
2023-02-04T08:33:19.120Z,7.32
2023-02-04T08:34:19.092Z,7.40
2023-02-04T08:35:19.080Z,7.36
2023-02-04T08:36:19.068Z,7.39
2023-02-04T08:37:19.054Z,7.40
2023-02-04T08:38:19.041Z,7.45
2023-02-04T08:39:19.038Z,7.48
2023-02-04T08:40:20.443Z,7.47
2023-02-04T08:41:19.006Z,7.40
2023-02-04T08:42:18.993Z,7.38
2023-02-04T08:43:18.997Z,7.33
2023-02-04T08:44:18.970Z,7.33
2023-02-04T08:45:18.972Z,7.36
2023-02-04T08:46:19.045Z,7.38
2023-02-04T08:47:18.950Z,7.42
2023-02-04T08:48:18.934Z,7.48
2023-02-04T08:49:18.946Z,7.53
2023-02-04T08:50:18.927Z,7.47
2023-02-04T08:51:18.917Z,7.48
2023-02-04T08:52:18.895Z,7.43
2023-02-04T08:53:18.897Z,7.54
2023-02-04T08:54:18.874Z,7.58
2023-02-04T08:55:18.876Z,7.56
2023-02-04T08:56:18.877Z,7.56
2023-02-04T08:57:18.856Z,7.43
2023-02-04T08:58:18.833Z,7.56
2023-02-04T08:59:18.827Z,7.53
2023-02-04T09:00:18.849Z,7.51
2023-02-04T09:01:18.921Z,7.60
2023-02-04T09:02:18.844Z,7.58
2023-02-04T09:03:18.782Z,7.50
2023-02-04T09:04:18.767Z,7.48
2023-02-04T09:05:18.797Z,7.42
2023-02-04T09:06:18.746Z,7.48
2023-02-04T09:07:18.752Z,7.60
2023-02-04T09:08:18.729Z,7.60
2023-02-04T09:09:20.051Z,7.51
2023-02-04T09:10:18.706Z,7.63
2023-02-04T09:11:18.706Z,7.54
2023-02-04T09:12:18.685Z,7.47
2023-02-04T09:13:18.676Z,7.58
2023-02-04T09:14:18.681Z,7.58
2023-02-04T09:15:18.648Z,7.60
2023-02-04T09:16:18.753Z,7.60
2023-02-04T09:17:18.624Z,7.61
2023-02-04T09:18:18.618Z,7.57
2023-02-04T09:19:18.622Z,7.63
2023-02-04T09:20:18.595Z,7.67
2023-02-04T09:21:18.606Z,7.66
2023-02-04T09:22:18.592Z,7.56
2023-02-04T09:23:18.559Z,7.50
2023-02-04T09:24:18.592Z,7.54
2023-02-04T09:25:18.556Z,7.54
2023-02-04T09:26:18.529Z,7.53
2023-02-04T09:27:18.516Z,7.63
2023-02-04T09:28:18.578Z,7.66
2023-02-04T09:29:18.511Z,7.61
2023-02-04T09:30:18.495Z,7.56
2023-02-04T09:31:18.590Z,7.60
2023-02-04T09:32:18.463Z,7.61
2023-02-04T09:33:18.446Z,7.66
2023-02-04T09:34:18.438Z,7.63
2023-02-04T09:35:18.434Z,7.66
2023-02-04T09:36:18.429Z,7.61
2023-02-04T09:37:18.434Z,7.66
2023-02-04T09:38:18.402Z,7.61
2023-02-04T09:39:18.382Z,7.54
2023-02-04T09:40:18.387Z,7.53
2023-02-04T09:41:18.387Z,7.56
2023-02-04T09:42:18.350Z,7.56
2023-02-04T09:43:18.359Z,7.56
2023-02-04T09:44:18.335Z,7.56
2023-02-04T09:45:18.354Z,7.63
2023-02-04T09:46:18.321Z,7.66
2023-02-04T09:47:18.323Z,7.69
2023-02-04T09:48:18.292Z,7.67
2023-02-04T09:49:18.303Z,7.72
2023-02-04T09:50:18.264Z,7.75
2023-02-04T09:51:18.254Z,7.77
2023-02-04T09:52:18.339Z,7.79
2023-02-04T09:53:18.248Z,7.88
2023-02-04T09:54:18.220Z,7.88
2023-02-04T09:55:18.207Z,7.77
2023-02-04T09:56:18.192Z,7.83
2023-02-04T09:57:18.276Z,7.80
2023-02-04T09:58:18.173Z,7.93
2023-02-04T09:59:18.153Z,7.82
2023-02-04T10:00:18.138Z,7.88
2023-02-04T10:01:18.172Z,7.95
2023-02-04T10:02:18.114Z,7.80
2023-02-04T10:03:18.151Z,7.79
2023-02-04T10:04:18.083Z,7.70
2023-02-04T10:05:18.066Z,7.67
2023-02-04T10:06:18.061Z,7.80
2023-02-04T10:07:18.077Z,7.69
2023-02-04T10:08:18.045Z,7.67
2023-02-04T10:09:18.054Z,7.72
2023-02-04T10:10:18.012Z,7.57
2023-02-04T10:11:17.997Z,7.70
2023-02-04T10:12:17.997Z,7.77
2023-02-04T10:13:17.991Z,7.77
2023-02-04T10:14:17.962Z,7.77
2023-02-04T10:15:17.950Z,7.79
2023-02-04T10:16:17.963Z,7.77
2023-02-04T10:17:17.935Z,7.83
2023-02-04T10:18:17.940Z,7.72
2023-02-04T10:19:17.904Z,7.76
2023-02-04T10:20:17.902Z,7.79
2023-02-04T10:21:17.890Z,7.70
2023-02-04T10:22:17.872Z,7.67
2023-02-04T10:23:17.861Z,7.58
2023-02-04T10:24:17.860Z,7.54
2023-02-04T10:25:17.869Z,7.67
2023-02-04T10:26:17.828Z,7.61
2023-02-04T10:27:17.837Z,7.53
2023-02-04T10:28:17.981Z,7.69
2023-02-04T10:29:17.790Z,7.70
2023-02-04T10:30:17.783Z,7.73
2023-02-04T10:31:17.907Z,7.77
2023-02-04T10:32:17.766Z,7.77
2023-02-04T10:33:17.756Z,7.85
2023-02-04T10:34:19.012Z,7.83
2023-02-04T10:35:17.724Z,7.82
2023-02-04T10:36:17.722Z,7.72
2023-02-04T10:37:17.702Z,7.70
2023-02-04T10:38:17.717Z,7.69
2023-02-04T10:39:17.682Z,7.67
2023-02-04T10:40:17.675Z,7.63
2023-02-04T10:41:17.702Z,7.54
2023-02-04T10:42:17.657Z,7.60
2023-02-04T10:43:17.638Z,7.66
2023-02-04T10:44:17.653Z,7.72
2023-02-04T10:45:17.610Z,7.54
2023-02-04T10:46:17.644Z,7.54
2023-02-04T10:47:17.596Z,7.66
2023-02-04T10:48:17.586Z,7.72
2023-02-04T10:49:17.566Z,7.67
2023-02-04T10:50:17.565Z,7.60
2023-02-04T10:51:17.557Z,7.67
2023-02-04T10:52:17.534Z,7.82
2023-02-04T10:53:17.533Z,7.75
2023-02-04T10:54:17.547Z,7.85
2023-02-04T10:55:17.500Z,7.79
2023-02-04T10:56:17.490Z,7.72
2023-02-04T10:57:17.506Z,7.73
2023-02-04T10:58:17.467Z,7.76
2023-02-04T10:59:17.453Z,7.82
2023-02-04T11:00:17.465Z,7.87
2023-02-04T11:01:17.506Z,7.76
2023-02-04T11:02:17.452Z,7.83
2023-02-04T11:03:17.460Z,7.83
2023-02-04T11:04:17.401Z,7.93
2023-02-04T11:05:17.400Z,7.94
2023-02-04T11:06:17.389Z,7.95
2023-02-04T11:07:17.375Z,7.91
2023-02-04T11:08:17.360Z,7.93
2023-02-04T11:09:17.340Z,7.93
2023-02-04T11:10:17.434Z,7.85
2023-02-04T11:11:17.326Z,7.93
2023-02-04T11:12:17.319Z,7.94
2023-02-04T11:13:17.327Z,7.94
2023-02-04T11:14:17.290Z,8.01
2023-02-04T11:15:17.276Z,7.94
2023-02-04T11:16:17.357Z,7.98
2023-02-04T11:17:17.251Z,7.98
2023-02-04T11:18:17.246Z,8.08
2023-02-04T11:19:17.241Z,8.05
2023-02-04T11:20:17.331Z,8.08
2023-02-04T11:21:19.215Z,8.05
2023-02-04T11:22:17.195Z,8.01
2023-02-04T11:23:17.181Z,8.16
2023-02-04T11:24:17.193Z,8.06
2023-02-04T11:25:17.171Z,7.98
2023-02-04T11:26:17.175Z,8.05
2023-02-04T11:27:17.136Z,8.01
2023-02-04T11:28:17.252Z,8.06
2023-02-04T11:29:17.141Z,8.05
2023-02-04T11:30:17.105Z,8.05
2023-02-04T11:31:17.210Z,8.05
2023-02-04T11:32:17.083Z,8.16
2023-02-04T11:33:17.068Z,8.16
2023-02-04T11:34:17.055Z,8.23
2023-02-04T11:35:17.049Z,8.16
2023-02-04T11:36:17.044Z,8.09
2023-02-04T11:37:17.042Z,8.10
2023-02-04T11:38:17.013Z,8.05
2023-02-04T11:39:16.995Z,8.13
2023-02-04T11:40:16.993Z,8.24
2023-02-04T11:41:16.984Z,8.15
2023-02-04T11:42:16.985Z,8.19
2023-02-04T11:43:16.959Z,8.18
2023-02-04T11:44:16.949Z,8.18
2023-02-04T11:45:16.951Z,8.08
2023-02-04T11:46:17.019Z,8.09
2023-02-04T11:47:16.908Z,8.05
2023-02-04T11:48:16.896Z,8.01
2023-02-04T11:49:16.880Z,8.06
2023-02-04T11:50:16.877Z,8.05
2023-02-04T11:51:16.867Z,8.03
2023-02-04T11:52:16.868Z,8.10
2023-02-04T11:53:16.838Z,8.09
2023-02-04T11:54:16.826Z,8.03
2023-02-04T11:55:16.829Z,8.12
2023-02-04T11:56:16.811Z,8.19
2023-02-04T11:57:16.796Z,8.24
2023-02-04T11:58:16.821Z,8.19
2023-02-04T11:59:16.767Z,8.15
2023-02-04T12:00:16.754Z,8.12
2023-02-04T12:01:16.766Z,8.20
2023-02-04T12:02:16.845Z,8.24
2023-02-04T12:03:16.723Z,8.28
2023-02-04T12:04:16.714Z,8.27
2023-02-04T12:05:16.714Z,8.34
2023-02-04T12:06:16.701Z,8.36
2023-02-04T12:07:16.677Z,8.33
2023-02-04T12:08:16.677Z,8.34
2023-02-04T12:09:16.654Z,8.37
2023-02-04T12:10:16.652Z,8.30
2023-02-04T12:11:16.643Z,8.28
2023-02-04T12:12:16.622Z,8.37
2023-02-04T12:13:16.624Z,8.38
2023-02-04T12:14:16.604Z,8.31
2023-02-04T12:15:16.587Z,8.34
2023-02-04T12:16:16.647Z,8.28
2023-02-04T12:17:16.589Z,8.41
2023-02-04T12:18:16.594Z,8.37
2023-02-04T12:19:16.539Z,8.41
2023-02-04T12:20:16.534Z,8.36
2023-02-04T12:21:16.520Z,8.45
2023-02-04T12:22:16.514Z,8.46
2023-02-04T12:23:16.519Z,8.42
2023-02-04T12:24:16.484Z,8.42
2023-02-04T12:25:16.476Z,8.44
2023-02-04T12:26:16.465Z,8.30
2023-02-04T12:27:16.456Z,8.46
2023-02-04T12:28:16.549Z,8.45
2023-02-04T12:29:16.432Z,8.41
2023-02-04T12:30:16.418Z,8.41
2023-02-04T12:31:16.481Z,8.36
2023-02-04T12:32:16.392Z,8.34
2023-02-04T12:33:16.401Z,8.46
2023-02-04T12:34:16.382Z,8.41
2023-02-04T12:35:16.353Z,8.45
2023-02-04T12:36:16.348Z,8.45
2023-02-04T12:37:16.332Z,8.49
2023-02-04T12:38:16.345Z,8.52
2023-02-04T12:39:16.315Z,8.56
2023-02-04T12:40:16.299Z,8.53
2023-02-04T12:41:16.288Z,8.49
2023-02-04T12:42:16.277Z,8.42
2023-02-04T12:43:16.269Z,8.41
2023-02-04T12:44:16.270Z,8.28
2023-02-04T12:45:16.281Z,8.41
2023-02-04T12:46:16.289Z,8.37
2023-02-04T12:47:16.219Z,8.36
2023-02-04T12:48:16.269Z,8.38
2023-02-04T12:49:16.235Z,8.36
2023-02-04T12:50:16.212Z,8.31
2023-02-04T12:51:16.168Z,8.37
2023-02-04T12:52:16.163Z,8.31
2023-02-04T12:53:16.146Z,8.36
2023-02-04T12:54:16.141Z,8.44
2023-02-04T12:55:16.154Z,8.38
2023-02-04T12:56:16.118Z,8.33
2023-02-04T12:57:16.101Z,8.36
2023-02-04T12:58:16.092Z,8.37
2023-02-04T12:59:16.080Z,8.23
2023-02-04T13:00:16.077Z,8.19
2023-02-04T13:01:16.198Z,8.31
2023-02-04T13:02:16.114Z,8.23
2023-02-04T13:03:16.036Z,8.34
2023-02-04T13:04:16.029Z,8.34
2023-02-04T13:05:16.037Z,8.33
2023-02-04T13:06:16.030Z,8.41
2023-02-04T13:07:16.006Z,8.49
2023-02-04T13:08:15.982Z,8.52
2023-02-04T13:09:15.964Z,8.58
2023-02-04T13:10:15.989Z,8.63
2023-02-04T13:11:15.944Z,8.49
2023-02-04T13:12:15.945Z,8.55
2023-02-04T13:13:15.920Z,8.58
2023-02-04T13:14:15.923Z,8.55
2023-02-04T13:15:15.897Z,8.49
2023-02-04T13:16:15.951Z,8.58
2023-02-04T13:17:15.888Z,8.53
2023-02-04T13:18:17.422Z,8.52